Time;durP1;ratioP1;P1;durP2;ratioP2;P2;SDS_P1;SDS_P2;PMS_P1;PMS_P2;Temp;Humidity;BMP_temperature;BMP_pressure;BME280_temperature;BME280_humidity;BME280_pressure;Samples;Min_cycle;Max_cycle;Signal;HPM_P1;HPM_P2
2022/09/24 00:01:24;;;;;;;6.38;2.08;;;;;;;12.24;62.59;100171.25;4978160;28;20050;-38
2022/09/24 00:03:53;;;;;;;4.68;1.92;;;;;;;12.20;62.63;100170.38;4975945;28;20054;-38
2022/09/24 00:06:20;;;;;;;5.63;2.40;;;;;;;12.17;63.03;100169.56;4978964;28;20136;-37
2022/09/24 00:08:49;;;;;;;7.32;2.13;;;;;;;12.14;64.05;100164.38;4979630;28;20145;-39
2022/09/24 00:11:18;;;;;;;7.15;2.00;;;;;;;12.10;63.55;100173.94;4978815;28;20194;-39
2022/09/24 00:13:46;;;;;;;4.22;1.67;;;;;;;12.07;63.75;100185.22;4979566;28;20047;-38
2022/09/24 00:16:15;;;;;;;3.35;1.50;;;;;;;12.06;63.06;100183.47;4979229;28;20077;-40
2022/09/24 00:18:42;;;;;;;5.63;1.83;;;;;;;12.02;63.72;100181.75;4996205;28;20124;-38
2022/09/24 00:23:55;;;;;;;5.25;2.35;;;;;;;11.99;63.10;100176.56;5052201;27;20390;-40
2022/09/24 00:29:11;;;;;;;7.22;1.95;;;;;;;11.89;63.20;100180.09;5025211;28;19927;-38
2022/09/24 00:31:37;;;;;;;5.05;2.22;;;;;;;11.87;63.48;100177.50;5039657;28;20512;-39
2022/09/24 00:34:05;;;;;;;4.72;2.38;;;;;;;11.85;64.17;100173.22;5011245;28;20175;-38
2022/09/24 00:36:31;;;;;;;6.43;2.95;;;;;;;11.82;63.35;100179.25;5013154;28;20144;-38
2022/09/24 00:38:59;;;;;;;4.18;1.95;;;;;;;11.79;63.73;100177.53;5021281;28;20938;-38
2022/09/24 00:41:30;;;;;;;7.18;2.35;;;;;;;11.77;63.67;100171.53;5031647;28;20084;-38
2022/09/24 00:43:57;;;;;;;7.97;2.15;;;;;;;11.75;64.54;100181.03;5024252;28;20172;-39
2022/09/24 00:49:04;;;;;;;4.32;3.53;;;;;;;11.75;64.19;100178.44;5045822;27;20437;-38
2022/09/24 00:51:32;;;;;;;4.82;2.65;;;;;;;11.75;65.14;100173.25;5037010;28;20102;-39
2022/09/24 00:54:05;;;;;;;4.53;3.35;;;;;;;11.72;65.05;100173.25;5046089;28;20064;-38
2022/09/24 00:56:35;;;;;;;4.82;2.92;;;;;;;11.71;64.75;100168.94;5044816;28;20046;-38
2022/09/24 00:59:03;;;;;;;;;;;;;;;11.55;66.17;100178.56;5044173;28;20635;-39
2022/09/24 01:01:29;;;;;;;5.32;1.85;;;;;;;11.65;65.73;100179.38;5054550;28;20467;-38
2022/09/24 01:03:58;;;;;;;5.38;3.00;;;;;;;11.66;64.74;100183.69;5040955;28;20060;-39
2022/09/24 01:06:25;;;;;;;4.50;3.10;;;;;;;11.65;65.21;100182.81;5040267;28;20129;-39
2022/09/24 01:08:55;;;;;;;3.90;1.90;;;;;;;11.64;65.26;100180.22;5050968;28;20480;-39
2022/09/24 01:25:27;;;;;;;5.55;2.80;;;;;;;11.52;65.63;100187.19;5067513;27;20399;-38
2022/09/24 01:30:34;;;;;;;4.50;2.40;;;;;;;11.44;65.26;100173.41;5030228;28;20398;-39
2022/09/24 01:33:03;;;;;;;5.28;2.75;;;;;;;11.41;65.47;100168.22;5001090;28;20045;-38
2022/09/24 01:35:42;;;;;;;7.55;2.95;;;;;;;11.35;66.13;100173.44;5001127;28;20046;-37
2022/09/24 01:38:14;;;;;;;6.05;2.42;;;;;;;11.33;65.35;100160.50;4999757;28;20100;-39
2022/09/24 01:40:42;;;;;;;6.15;2.33;;;;;;;11.31;66.24;100163.09;5001954;28;20046;-39
2022/09/24 01:43:10;;;;;;;11.82;3.28;;;;;;;11.28;65.58;100160.50;5001494;28;20046;-39
2022/09/24 01:45:38;;;;;;;7.07;2.70;;;;;;;11.27;65.77;100156.19;4996274;28;20058;-38
2022/09/24 01:48:06;;;;;;;5.10;2.78;;;;;;;11.26;66.55;100158.78;4999763;28;20058;-39
2022/09/24 01:50:43;;;;;;;7.00;2.85;;;;;;;11.24;65.67;100158.78;5001355;28;20066;-39
2022/09/24 01:53:18;;;;;;;7.75;2.78;;;;;;;11.24;65.46;100156.19;5000508;28;20105;-39
2022/09/24 01:55:49;;;;;;;7.72;2.30;;;;;;;11.23;66.16;100149.28;5000157;28;20046;-39
2022/09/24 01:58:24;;;;;;;7.07;3.45;;;;;;;11.22;65.62;100155.34;5000173;28;20077;-40
2022/09/24 02:01:00;;;;;;;7.22;2.42;;;;;;;11.19;65.45;100152.75;5000826;28;20137;-38
2022/09/24 02:03:33;;;;;;;6.45;3.03;;;;;;;11.17;65.81;100144.13;4998442;28;20077;-39
2022/09/24 02:08:39;;;;;;;5.35;2.70;;;;;;;11.11;66.27;100144.16;5129263;27;20389;-38
2022/09/24 02:11:12;;;;;;;6.95;3.70;;;;;;;11.08;65.45;100144.16;5095758;28;20056;-40
2022/09/24 02:13:51;;;;;;;7.72;3.30;;;;;;;11.01;65.52;100135.56;5099573;28;20120;-39
2022/09/24 02:16:21;;;;;;;8.80;3.58;;;;;;;11.01;66.15;100138.16;5093721;28;20042;-38
2022/09/24 02:18:53;;;;;;;7.40;3.83;;;;;;;10.97;65.43;100132.09;5097728;28;20093;-37
2022/09/24 02:21:22;;;;;;;9.25;2.90;;;;;;;10.95;65.85;100133.84;5111704;27;20126;-37
2022/09/24 02:23:56;;;;;;;7.00;3.85;;;;;;;10.92;65.81;100144.22;5114117;27;20067;-38
2022/09/24 02:26:22;;;;;;;7.93;3.08;;;;;;;10.89;66.00;100149.41;5100137;28;20134;-40
2022/09/24 02:28:49;;;;;;;5.65;2.70;;;;;;;10.87;65.89;100148.53;5099831;28;20051;-37
2022/09/24 02:31:23;;;;;;;5.25;2.50;;;;;;;10.85;65.89;100147.69;5094492;28;20094;-39
2022/09/24 02:36:38;;;;;;;5.30;3.08;;;;;;;10.82;66.55;100138.19;5087335;28;20040;-37
2022/09/24 02:39:04;;;;;;;9.43;2.35;;;;;;;10.83;65.98;100149.41;5090094;28;20068;-37
2022/09/24 02:41:32;;;;;;;8.27;2.88;;;;;;;10.82;66.89;100142.50;5099875;28;20142;-37
2022/09/24 02:43:59;;;;;;;7.97;3.03;;;;;;;10.82;66.41;100143.38;5119964;27;20039;-37
2022/09/24 02:46:26;;;;;;;5.00;2.92;;;;;;;10.80;66.26;100143.38;5120789;27;20074;-37
2022/09/24 02:48:52;;;;;;;6.47;3.03;;;;;;;10.80;67.04;100152.84;5101023;27;20045;-39
2022/09/24 02:51:20;;;;;;;9.55;3.03;;;;;;;10.79;66.50;100148.56;5100381;28;20071;-39
2022/09/24 02:53:47;;;;;;;6.63;3.00;;;;;;;10.77;66.25;100145.97;5101972;28;20063;-38
2022/09/24 02:56:13;;;;;;;6.78;3.10;;;;;;;10.76;66.99;100144.25;5103342;28;20525;-37
2022/09/24 02:58:40;;;;;;;6.82;2.70;;;;;;;10.76;66.63;100149.44;5122277;28;20078;-37
2022/09/24 03:01:06;;;;;;;5.60;2.80;;;;;;;10.77;66.55;100148.56;5123874;27;20134;-40
2022/09/24 03:03:33;;;;;;;6.22;2.78;;;;;;;10.77;66.69;100147.69;5106106;28;20181;-37
2022/09/24 03:05:59;;;;;;;8.77;2.67;;;;;;;10.75;67.37;100147.72;5099421;28;20102;-36
2022/09/24 03:08:26;;;;;;;6.20;2.42;;;;;;;10.74;67.34;100145.97;5092887;28;20101;-38
2022/09/24 03:10:54;;;;;;;5.68;2.50;;;;;;;10.72;67.45;100142.53;5092486;28;20102;-39
2022/09/24 03:13:21;;;;;;;7.97;2.70;;;;;;;10.73;67.62;100153.72;5088987;28;20584;-38
2022/09/24 03:15:48;;;;;;;7.15;2.80;;;;;;;10.72;66.95;100152.88;5099989;28;20138;-38
2022/09/24 03:18:15;;;;;;;6.10;2.60;;;;;;;10.71;66.93;100156.31;5090584;28;20048;-38
2022/09/24 03:20:41;;;;;;;5.45;2.72;;;;;;;10.70;67.14;100157.19;5084096;28;20449;-36
2022/09/24 03:23:08;;;;;;;12.05;3.92;;;;;;;10.67;66.86;100152.88;5085159;28;20071;-37
2022/09/24 03:25:35;;;;;;;7.63;2.83;;;;;;;10.65;67.38;100156.34;5100770;28;20094;-39
2022/09/24 03:28:01;;;;;;;5.15;2.58;;;;;;;10.63;66.97;100158.94;5105262;28;20146;-38
2022/09/24 03:33:14;;;;;;;6.80;2.85;;;;;;;10.57;67.21;100158.94;5075250;28;20127;-38
2022/09/24 03:35:41;;;;;;;7.50;3.70;;;;;;;10.55;67.59;100160.69;5082077;28;20048;-38
2022/09/24 03:38:08;;;;;;;7.18;3.05;;;;;;;10.52;66.92;100160.66;5082958;28;20060;-39
2022/09/24 03:40:34;;;;;;;6.97;3.00;;;;;;;10.49;67.45;100155.50;5084328;28;20075;-37
2022/09/24 03:43:01;;;;;;;6.18;2.80;;;;;;;10.44;67.36;100158.06;5081301;28;20049;-39
2022/09/24 03:45:27;;;;;;;5.97;2.78;;;;;;;10.41;66.91;100160.66;5086484;28;20093;-38
2022/09/24 03:47:54;;;;;;;6.05;2.90;;;;;;;10.39;67.46;100149.41;5083126;28;20131;-37
2022/09/24 03:50:21;;;;;;;5.68;2.90;;;;;;;10.37;66.96;100156.34;5084282;28;20048;-38
2022/09/24 03:52:47;;;;;;;4.88;2.42;;;;;;;10.34;67.25;100164.09;5084559;28;20147;-39
2022/09/24 03:55:14;;;;;;;8.60;3.28;;;;;;;10.33;67.69;100170.16;5085063;28;20071;-40
2022/09/24 03:57:40;;;;;;;8.05;2.72;;;;;;;10.33;67.23;100164.97;5095538;28;20043;-39
2022/09/24 04:00:08;;;;;;;8.35;3.13;;;;;;;10.32;67.42;100164.09;5099096;27;20149;-40
2022/09/24 04:02:35;;;;;;;6.55;3.10;;;;;;;10.30;67.18;100168.41;5106654;28;20098;-38
2022/09/24 04:05:01;;;;;;;6.78;2.55;;;;;;;10.28;67.46;100168.44;5102991;28;20082;-37
2022/09/24 04:07:28;;;;;;;7.80;3.10;;;;;;;10.27;67.79;100165.84;5106784;28;20048;-37
2022/09/24 04:09:54;;;;;;;7.28;2.95;;;;;;;10.24;68.03;100166.66;5095972;28;20065;-38
2022/09/24 04:12:21;;;;;;;7.03;2.67;;;;;;;10.23;68.08;100167.53;5105329;28;20071;-39
2022/09/24 04:14:48;;;;;;;4.00;1.90;;;;;;;10.23;68.33;100169.28;5103826;28;20142;-37
2022/09/24 04:17:16;;;;;;;5.45;2.63;;;;;;;10.22;67.76;100173.59;5102221;28;20036;-39
2022/09/24 04:19:42;;;;;;;5.07;2.30;;;;;;;10.21;68.41;100177.06;5104232;27;20055;-36
2022/09/24 04:22:09;;;;;;;5.25;3.33;;;;;;;10.21;67.64;100171.88;5099387;27;20087;-39
2022/09/24 04:24:35;;;;;;;6.88;2.35;;;;;;;10.20;67.64;100170.13;5100266;28;20044;-39
2022/09/24 04:27:02;;;;;;;6.30;2.20;;;;;;;10.18;68.17;100171.00;5102257;27;20065;-38
2022/09/24 04:29:29;;;;;;;5.65;2.42;;;;;;;10.17;68.28;100170.16;5100835;27;20131;-39
2022/09/24 04:31:55;;;;;;;8.80;2.50;;;;;;;10.15;67.91;100171.84;5101723;27;20097;-38
2022/09/24 04:34:22;;;;;;;6.55;2.47;;;;;;;10.14;68.32;100170.13;5100839;28;20496;-38
2022/09/24 04:36:48;;;;;;;5.45;2.53;;;;;;;10.11;67.86;100175.31;5104452;28;20098;-38
2022/09/24 04:39:15;;;;;;;7.97;3.13;;;;;;;10.09;67.79;100171.84;5102386;27;20555;-39
2022/09/24 04:41:41;;;;;;;5.90;2.65;;;;;;;10.08;68.07;100177.88;5102186;27;20039;-38
2022/09/24 04:44:09;;;;;;;6.30;2.40;;;;;;;10.08;68.36;100180.47;5103450;28;20074;-39
2022/09/24 04:46:36;;;;;;;5.70;2.40;;;;;;;10.08;68.11;100180.47;5104146;28;20544;-38
2022/09/24 04:49:03;;;;;;;4.90;2.30;;;;;;;10.07;68.32;100181.34;5104740;27;20058;-38
2022/09/24 04:51:32;;;;;;;8.82;2.80;;;;;;;10.05;68.00;100180.47;5096843;27;20131;-38
2022/09/24 04:54:01;;;;;;;5.95;2.03;;;;;;;10.05;68.27;100183.03;5102551;28;20181;-37
2022/09/24 04:56:28;;;;;;;6.10;2.13;;;;;;;10.05;68.49;100185.63;5098842;28;20120;-38
2022/09/24 04:58:56;;;;;;;4.97;2.15;;;;;;;10.00;68.15;100188.25;5088359;28;20073;-39
2022/09/24 05:01:23;;;;;;;7.88;2.28;;;;;;;9.97;68.13;100181.31;5098258;27;20109;-39
2022/09/24 05:03:50;;;;;;;6.32;2.72;;;;;;;9.96;68.08;100187.34;5103341;28;20051;-38
2022/09/24 05:06:16;;;;;;;6.25;2.25;;;;;;;9.93;67.87;100192.50;5104063;28;20479;-37
2022/09/24 05:08:43;;;;;;;7.45;2.60;;;;;;;9.92;68.26;100185.63;5104116;27;20067;-37
2022/09/24 05:11:10;;;;;;;4.30;1.75;;;;;;;9.91;68.48;100189.06;5100556;28;20131;-38
2022/09/24 05:13:36;;;;;;;10.60;2.13;;;;;;;9.89;68.21;100193.38;5100227;28;20071;-36
2022/09/24 05:16:03;;;;;;;7.35;1.80;;;;;;;9.87;67.95;100197.69;5102853;27;20126;-38
2022/09/24 05:18:30;;;;;;;5.85;2.42;;;;;;;9.86;67.87;100195.97;5098758;28;20057;-38
2022/09/24 05:20:56;;;;;;;6.95;2.25;;;;;;;9.84;67.63;100197.69;5098732;28;20530;-38
2022/09/24 05:23:23;;;;;;;6.22;1.88;;;;;;;9.82;68.08;100200.25;5099513;28;20043;-37
2022/09/24 05:28:38;;;;;;;5.90;1.95;;;;;;;9.78;67.97;100201.09;5066770;28;20121;-38
2022/09/24 05:31:04;;;;;;;6.97;2.05;;;;;;;9.77;67.97;100212.31;5092820;28;20474;-39
2022/09/24 05:33:31;;;;;;;4.30;1.42;;;;;;;9.76;68.18;100216.63;5100035;28;20118;-38
2022/09/24 05:35:58;;;;;;;7.05;2.38;;;;;;;9.74;68.10;100213.19;5099414;28;20138;-37
2022/09/24 05:38:24;;;;;;;4.70;2.17;;;;;;;9.75;67.82;100220.06;5099761;28;20052;-38
2022/09/24 05:40:51;;;;;;;4.85;1.85;;;;;;;9.73;67.96;100216.59;5096284;28;20398;-38
2022/09/24 05:43:18;;;;;;;4.50;1.92;;;;;;;9.72;68.22;100221.75;5098386;27;20044;-39
2022/09/24 05:45:45;;;;;;;5.22;2.03;;;;;;;9.70;68.15;100220.91;5100268;28;20036;-39
2022/09/24 05:48:11;;;;;;;5.53;1.83;;;;;;;9.67;67.99;100226.06;5097320;28;20160;-39
2022/09/24 05:50:38;;;;;;;7.38;2.35;;;;;;;9.65;67.93;100233.81;5101048;28;20052;-38
2022/09/24 05:53:05;;;;;;;4.93;1.90;;;;;;;9.63;67.93;100235.56;5099293;28;20081;-38
2022/09/24 05:55:32;;;;;;;9.68;2.00;;;;;;;9.60;68.13;100230.38;5101444;28;20567;-39
2022/09/24 05:58:02;;;;;;;7.32;1.67;;;;;;;9.61;68.32;100239.84;5096835;28;20483;-38
2022/09/24 06:00:29;;;;;;;6.03;1.85;;;;;;;9.59;68.19;100233.81;5081391;28;20207;-37
2022/09/24 06:03:01;;;;;;;7.00;2.22;;;;;;;9.58;68.62;100239.81;5091114;28;20139;-37
2022/09/24 06:05:28;;;;;;;5.20;1.90;;;;;;;9.57;68.11;100235.50;5061501;28;20079;-37
2022/09/24 06:07:55;;;;;;;5.20;2.15;;;;;;;9.58;68.27;100242.41;5083348;28;20433;-37
2022/09/24 06:10:21;;;;;;;6.03;3.58;;;;;;;9.57;68.15;100241.56;5086548;28;20608;-37
2022/09/24 06:12:49;;;;;;;5.35;3.60;;;;;;;9.58;68.42;100242.41;5081711;28;20683;-37
2022/09/24 06:15:15;;;;;;;9.02;2.33;;;;;;;9.57;68.08;100244.16;5077280;28;20097;-39
2022/09/24 06:17:42;;;;;;;6.47;2.15;;;;;;;9.58;68.59;100250.16;5080046;28;20050;-38
2022/09/24 06:20:09;;;;;;;6.13;2.13;;;;;;;9.60;68.97;100245.88;5097385;28;20048;-39
2022/09/24 06:22:35;;;;;;;6.20;2.00;;;;;;;9.64;68.71;100255.38;5079715;28;20040;-36
2022/09/24 06:25:02;;;;;;;6.97;2.40;;;;;;;9.66;68.75;100256.22;5083803;28;20075;-37
2022/09/24 06:27:29;;;;;;;7.13;1.98;;;;;;;9.67;68.76;100263.16;5083226;28;20713;-36
2022/09/24 06:29:55;;;;;;;3.15;1.70;;;;;;;9.69;69.00;100253.66;5079777;28;20896;-37
2022/09/24 06:32:23;;;;;;;5.07;2.03;;;;;;;9.73;69.04;100260.56;5081521;28;20445;-37
2022/09/24 06:34:49;;;;;;;4.75;1.80;;;;;;;9.77;69.05;100264.06;5078845;28;20043;-38
2022/09/24 06:37:22;;;;;;;6.07;1.80;;;;;;;9.80;69.04;100264.06;5077873;28;21167;-37
2022/09/24 06:39:48;;;;;;;5.22;1.55;;;;;;;9.83;68.84;100260.63;5080931;28;20544;-37
2022/09/24 06:42:15;;;;;;;3.97;1.90;;;;;;;9.87;69.24;100267.53;5080689;28;20040;-38
2022/09/24 06:44:41;;;;;;;5.70;1.90;;;;;;;9.93;69.02;100264.13;5075772;28;20199;-37
2022/09/24 06:47:08;;;;;;;5.57;1.77;;;;;;;9.97;69.17;100271.03;5079011;28;20044;-37
2022/09/24 06:49:35;;;;;;;7.18;1.92;;;;;;;10.00;68.82;100276.22;5079920;28;20463;-37
2022/09/24 06:52:01;;;;;;;6.32;1.98;;;;;;;10.06;69.08;100265.03;5079318;28;20052;-37
2022/09/24 06:54:28;;;;;;;5.40;1.73;;;;;;;10.12;68.78;100270.19;5082122;28;20134;-38
2022/09/24 06:56:54;;;;;;;3.63;1.20;;;;;;;10.17;68.90;100271.09;5089503;28;20435;-39
2022/09/24 06:59:21;;;;;;;4.22;1.20;;;;;;;10.21;68.91;100265.06;5084736;28;20043;-39
2022/09/24 07:01:48;;;;;;;12.20;2.13;;;;;;;10.27;68.91;100270.22;5084316;28;20133;-39
2022/09/24 07:04:14;;;;;;;6.80;1.33;;;;;;;10.32;69.15;100271.97;5102893;28;20043;-38
2022/09/24 07:09:27;;;;;;;3.38;1.17;;;;;;;10.44;69.51;100282.38;5083228;28;20475;-38
2022/09/24 07:11:55;;;;;;;4.40;1.40;;;;;;;10.51;70.17;100284.09;5079030;28;20143;-37
2022/09/24 07:14:22;;;;;;;5.05;1.30;;;;;;;10.60;69.70;100292.78;5077775;28;20055;-36
2022/09/24 07:16:48;;;;;;;5.05;1.73;;;;;;;10.86;69.13;100289.31;5085133;28;20079;-36
2022/09/24 07:19:15;;;;;;;2.72;1.17;;;;;;;11.39;68.20;100290.09;5079243;28;20043;-39
2022/09/24 07:21:42;;;;;;;7.40;1.15;;;;;;;12.02;66.75;100295.97;5079952;28;20075;-39
2022/09/24 07:24:08;;;;;;;5.90;1.33;;;;;;;12.48;66.33;100296.59;5094619;28;20391;-37
2022/09/24 07:26:35;;;;;;;3.17;1.20;;;;;;;12.72;64.78;100305.09;5100839;28;20715;-37
2022/09/24 07:29:02;;;;;;;5.10;1.73;;;;;;;12.77;64.12;100298.13;5085426;28;20372;-36
2022/09/24 07:31:29;;;;;;;6.60;1.33;;;;;;;12.75;64.52;100301.59;5106819;27;20083;-37
2022/09/24 07:33:56;;;;;;;3.83;1.42;;;;;;;12.81;64.03;100302.44;5106022;27;20054;-39
2022/09/24 07:36:22;;;;;;;3.38;1.33;;;;;;;12.90;64.63;100311.03;5092606;28;20442;-38
2022/09/24 07:38:49;;;;;;;3.47;1.33;;;;;;;12.93;65.07;100306.66;5084534;28;20077;-38
2022/09/24 07:41:17;;;;;;;5.13;1.38;;;;;;;12.91;64.90;100307.56;5084334;28;20128;-38
2022/09/24 07:43:43;;;;;;;1.90;0.85;;;;;;;12.86;65.12;100304.97;5103997;27;20546;-39
2022/09/24 07:46:10;;;;;;;3.60;0.98;;;;;;;12.82;64.75;100301.56;5100783;27;20495;-38
2022/09/24 07:48:36;;;;;;;4.53;1.38;;;;;;;12.82;63.94;100306.75;5090240;28;20036;-39
2022/09/24 07:51:05;;;;;;;5.70;2.25;;;;;;;12.85;65.18;100304.16;5082475;28;20105;-36
2022/09/24 07:53:31;;;;;;;6.40;2.38;;;;;;;12.90;63.95;100304.09;5087171;28;20566;-37
2022/09/24 07:55:58;;;;;;;10.30;1.10;;;;;;;12.95;64.58;100304.06;5106379;28;20070;-40
2022/09/24 07:58:25;;;;;;;3.90;1.35;;;;;;;12.95;64.06;100304.06;5083977;28;20151;-39
2022/09/24 08:00:52;;;;;;;3.08;1.05;;;;;;;12.93;64.26;100311.00;5075071;28;20492;-36
2022/09/24 08:03:19;;;;;;;3.35;1.25;;;;;;;12.92;64.39;100319.66;5086143;28;20667;-39
2022/09/24 08:05:45;;;;;;;3.85;1.30;;;;;;;12.96;63.99;100318.78;5082219;28;20101;-38
2022/09/24 08:08:13;;;;;;;4.75;1.48;;;;;;;13.04;64.96;100309.16;5083803;28;20045;-38
2022/09/24 08:10:41;;;;;;;2.92;1.17;;;;;;;13.23;64.67;100319.41;5082385;28;20076;-39
2022/09/24 08:13:08;;;;;;;3.92;0.98;;;;;;;13.45;64.08;100327.00;5082619;28;20080;-39
2022/09/24 08:15:34;;;;;;;4.22;1.20;;;;;;;13.83;63.63;100320.56;5078694;28;20075;-39
2022/09/24 08:18:02;;;;;;;5.10;1.75;;;;;;;14.57;62.52;100323.06;5080229;28;20079;-43
2022/09/24 08:20:30;;;;;;;2.80;1.42;;;;;;;15.42;61.04;100327.78;5062007;28;20105;-48
2022/09/24 08:23:08;;;;;;;2.80;1.13;;;;;;;16.17;59.82;100326.31;5078145;28;20062;-42
2022/09/24 08:25:37;;;;;;;5.28;1.73;;;;;;;16.80;58.43;100333.63;5066441;28;20054;-38
2022/09/24 08:28:05;;;;;;;3.10;1.90;;;;;;;17.17;57.94;100332.75;5101043;28;20179;-39
2022/09/24 08:30:33;;;;;;;3.88;1.60;;;;;;;17.51;57.51;100343.22;5101192;28;20044;-41
2022/09/24 08:33:00;;;;;;;3.67;1.60;;;;;;;17.85;56.87;100347.53;5085971;28;20070;-41
2022/09/24 08:35:26;;;;;;;3.42;1.70;;;;;;;18.39;56.29;100345.13;5099576;28;20058;-39
2022/09/24 08:37:53;;;;;;;3.38;1.58;;;;;;;18.79;55.21;100342.13;5097991;27;20098;-39
2022/09/24 08:40:23;;;;;;;5.38;1.70;;;;;;;19.26;54.29;100354.63;5095955;27;20079;-39
2022/09/24 08:48:19;;;;;;;4.03;1.40;;;;;;;19.49;51.62;100369.56;5051297;28;20052;-38
2022/09/24 08:50:59;;;;;;;4.85;1.92;;;;;;;19.22;51.67;100372.25;5056929;28;20062;-38
2022/09/24 08:56:28;;;;;;;3.25;2.85;;;;;;;19.23;52.55;100381.84;5052846;27;20402;-42
2022/09/24 09:07:00;;;;;;;4.30;3.00;;;;;;;18.69;51.36;100383.56;5026425;27;20426;-38
2022/09/24 09:09:41;;;;;;;7.60;3.55;;;;;;;18.49;52.01;100385.91;5008878;28;20116;-39
2022/09/24 09:12:16;;;;;;;5.35;2.58;;;;;;;18.33;52.57;100389.88;5011186;28;20096;-39
2022/09/24 09:20:21;;;;;;;4.65;2.28;;;;;;;18.10;54.13;100397.50;5095953;27;20382;-41
2022/09/24 09:22:50;;;;;;;4.38;2.00;;;;;;;18.85;54.46;100391.81;5045242;28;20080;-39
2022/09/24 09:25:23;;;;;;;4.38;1.60;;;;;;;19.84;53.10;100392.03;5041766;28;20148;-39
2022/09/24 09:30:42;;;;;;;4.68;2.13;;;;;;;20.62;50.17;100394.44;5037265;27;20764;-41
2022/09/24 09:41:48;;;;;;;6.03;4.25;;;;;;;21.78;48.78;100394.09;5042406;28;20396;-41
2022/09/24 09:44:22;;;;;;;5.75;2.45;;;;;;;22.22;48.57;100400.03;4988997;28;20077;-40
2022/09/24 09:46:56;;;;;;;4.97;2.58;;;;;;;22.20;46.93;100407.19;4993562;28;20046;-42
2022/09/24 09:49:28;;;;;;;4.70;2.40;;;;;;;22.25;48.04;100405.19;5010302;28;20142;-40
2022/09/24 09:51:57;;;;;;;4.93;2.53;;;;;;;22.69;47.10;100403.19;4995849;28;20510;-41
2022/09/24 09:54:36;;;;;;;6.38;2.40;;;;;;;22.93;46.70;100401.16;5016214;28;20050;-42
2022/09/24 09:57:05;;;;;;;6.03;2.80;;;;;;;22.93;46.44;100400.31;4991104;28;20133;-40
2022/09/24 09:59:34;;;;;;;5.25;2.63;;;;;;;23.08;47.32;100399.56;5009633;28;20046;-41
2022/09/24 10:02:01;;;;;;;4.90;2.70;;;;;;;23.59;46.91;100400.56;5001938;28;20054;-41
2022/09/24 10:07:12;;;;;;;6.40;3.03;;;;;;;24.05;44.95;100394.66;5067115;27;20403;-40
2022/09/24 10:09:41;;;;;;;4.72;1.95;;;;;;;24.19;44.21;100391.28;5061268;28;20094;-43
2022/09/24 10:14:57;;;;;;;4.00;2.05;;;;;;;23.53;42.91;100393.81;5069780;28;20397;-40
2022/09/24 10:17:29;;;;;;;8.20;2.38;;;;;;;23.04;43.75;100392.72;5039142;28;20099;-40
2022/09/24 10:19:56;;;;;;;3.92;2.20;;;;;;;22.65;44.09;100394.56;5040682;28;20079;-41
2022/09/24 10:22:26;;;;;;;4.60;1.92;;;;;;;22.28;45.42;100389.22;5041945;28;20041;-40
2022/09/24 10:24:56;;;;;;;5.45;1.95;;;;;;;22.24;45.40;100392.94;5055699;28;20106;-38
2022/09/24 10:27:40;;;;;;;6.40;2.65;;;;;;;22.32;45.88;100387.28;5034683;28;20550;-39
2022/09/24 10:33:07;;;;;;;4.22;1.70;;;;;;;22.51;44.93;100392.56;5035151;28;20415;-41
2022/09/24 10:35:37;;;;;;;5.88;1.45;;;;;;;22.55;44.73;100386.22;5027938;28;20224;-40
2022/09/24 10:38:17;;;;;;;4.72;2.28;;;;;;;22.50;44.09;100393.50;5023622;28;20136;-39
2022/09/24 10:40:45;;;;;;;5.28;2.10;;;;;;;22.44;44.95;100388.50;5005746;28;20654;-39
2022/09/24 10:43:17;;;;;;;3.92;2.20;;;;;;;22.18;44.36;100387.94;5021024;28;20037;-41
2022/09/24 10:48:34;;;;;;;4.30;3.20;;;;;;;21.66;45.74;100397.25;5033258;28;20393;-40
2022/09/24 10:51:23;;;;;;;3.53;2.80;;;;;;;21.42;45.49;100395.59;5023253;28;20041;-39
2022/09/24 11:02:33;;;;;;;4.22;1.70;;;;;;;20.85;46.79;100390.91;5065010;28;20731;-39
2022/09/24 11:05:09;;;;;;;7.32;1.80;;;;;;;20.71;46.38;100394.09;5057445;28;20055;-38
2022/09/24 11:13:39;;;;;;;3.80;1.58;;;;;;;20.01;47.84;100394.94;5006742;28;20420;-40
2022/09/24 11:32:34;;;;;;;1.77;1.50;;;;;;;19.36;49.27;100391.94;5057255;28;21054;-38
2022/09/24 11:35:40;;;;;;;1.77;0.90;;;;;;;19.33;49.35;100390.28;5053803;28;20119;-39
2022/09/24 11:38:16;;;;;;;3.88;1.58;;;;;;;19.36;49.45;100386.69;5052657;28;20476;-39
2022/09/24 11:41:01;;;;;;;3.47;1.40;;;;;;;19.36;49.19;100384.06;5059094;28;20045;-40
2022/09/24 11:57:12;;;;;;;4.70;2.45;;;;;;;18.95;49.31;100387.97;5044470;27;20409;-40
2022/09/24 11:59:56;;;;;;;3.20;1.67;;;;;;;18.60;49.86;100387.31;5024338;28;20041;-41
2022/09/24 12:02:29;;;;;;;2.80;1.55;;;;;;;18.44;51.01;100393.03;5019396;28;20049;-40
2022/09/24 12:05:19;;;;;;;1.83;0.98;;;;;;;18.36;51.03;100389.78;5022480;28;20061;-41
2022/09/24 12:07:54;;;;;;;2.20;1.30;;;;;;;18.39;51.02;100384.47;5002392;28;20062;-40
2022/09/24 12:13:19;;;;;;;2.58;0.75;;;;;;;18.43;50.34;100390.44;5028216;27;20394;-39
2022/09/24 12:18:32;;;;;;;2.90;1.27;;;;;;;18.44;49.34;100398.28;5078438;27;20399;-40
2022/09/24 12:21:06;;;;;;;2.60;0.90;;;;;;;18.47;50.34;100398.19;5064486;28;20048;-41
2022/09/24 12:23:38;;;;;;;2.50;1.25;;;;;;;18.42;49.72;100391.38;5063951;28;20048;-38
2022/09/24 12:26:06;;;;;;;2.17;1.45;;;;;;;18.39;49.71;100399.31;5063722;28;20125;-39
2022/09/24 12:37:19;;;;;;;4.93;3.63;;;;;;;18.15;50.61;100392.16;5025854;27;20425;-39
2022/09/24 12:39:58;;;;;;;3.88;3.25;;;;;;;18.12;51.02;100389.59;4998763;28;20130;-40
2022/09/24 12:42:32;;;;;;;5.45;2.67;;;;;;;18.13;50.01;100393.94;5017867;28;20053;-40
2022/09/24 12:45:00;;;;;;;2.45;2.25;;;;;;;18.19;50.29;100393.78;5001409;28;20081;-42
2022/09/24 12:47:32;;;;;;;4.15;3.78;;;;;;;18.25;50.52;100395.34;5000169;28;20062;-41
2022/09/24 12:50:03;;;;;;;4.30;2.03;;;;;;;18.29;49.78;100393.50;5003428;28;20464;-41
2022/09/24 12:55:28;;;;;;;1.48;0.70;;;;;;;18.41;49.01;100381.78;5052196;27;20409;-39
2022/09/24 13:00:37;;;;;;;2.17;1.48;;;;;;;18.59;49.69;100391.72;5071757;27;20409;-38
2022/09/24 13:03:05;;;;;;;1.40;1.15;;;;;;;18.63;49.52;100393.34;5048374;28;20067;-38
2022/09/24 13:05:46;;;;;;;2.85;1.17;;;;;;;18.77;49.59;100393.81;5057585;28;20396;-39
2022/09/24 13:10:55;;;;;;;3.08;1.83;;;;;;;18.93;48.92;100404.66;5059366;28;20399;-41
2022/09/24 13:13:25;;;;;;;1.02;0.93;;;;;;;18.92;48.67;100398.59;5014600;28;20120;-39
2022/09/24 13:18:36;;;;;;;2.90;1.08;;;;;;;18.99;48.54;100407.94;5034498;27;20406;-41
2022/09/24 13:21:07;;;;;;;1.10;0.52;;;;;;;19.01;47.28;100393.03;5022858;28;20133;-40
2022/09/24 13:26:24;;;;;;;3.13;1.55;;;;;;;19.08;47.43;100398.97;5045992;28;20405;-41
2022/09/24 13:31:41;;;;;;;1.67;1.50;;;;;;;19.29;46.51;100395.69;5021868;27;20953;-39
2022/09/24 13:39:49;;;;;;;4.65;0.82;;;;;;;19.11;47.53;100388.38;5091278;27;20404;-40
2022/09/24 13:45:05;;;;;;;2.03;1.80;;;;;;;19.07;47.53;100393.75;5116361;27;20933;-39
2022/09/24 13:50:21;;;;;;;1.85;0.47;;;;;;;19.00;47.94;100388.69;5069266;27;20704;-43
2022/09/24 13:53:00;;;;;;;2.20;0.73;;;;;;;18.95;48.42;100392.38;5049459;28;20042;-40
2022/09/24 13:55:37;;;;;;;2.75;0.93;;;;;;;18.92;48.91;100397.72;5035842;28;20136;-43
2022/09/24 13:58:04;;;;;;;1.60;1.35;;;;;;;18.88;48.62;100395.19;5027259;28;20081;-42
2022/09/24 14:00:31;;;;;;;1.20;0.93;;;;;;;18.94;48.59;100396.75;5066055;28;20131;-40
2022/09/24 14:03:04;;;;;;;2.97;0.77;;;;;;;18.94;48.89;100391.50;5036788;28;20076;-39
2022/09/24 14:05:35;;;;;;;1.35;0.52;;;;;;;18.88;48.79;100396.97;5031999;28;20447;-40
2022/09/24 14:08:09;;;;;;;1.50;1.02;;;;;;;18.81;48.83;100403.31;5038893;28;20084;-43
2022/09/24 14:10:36;;;;;;;5.28;1.02;;;;;;;18.78;48.43;100395.53;5035466;28;20099;-39
2022/09/24 14:13:23;;;;;;;1.35;0.80;;;;;;;18.69;48.93;100397.53;5034295;28;20045;-39
2022/09/24 14:18:27;;;;;;;2.15;1.02;;;;;;;19.01;48.62;100393.03;5039333;27;20406;-40
2022/09/24 14:23:58;;;;;;;2.75;1.40;;;;;;;18.79;48.50;100397.25;5091051;27;20388;-42
2022/09/24 14:26:30;;;;;;;1.73;1.13;;;;;;;18.79;48.42;100399.88;5064106;28;20044;-40
2022/09/24 14:29:00;;;;;;;2.50;1.65;;;;;;;18.79;48.89;100398.09;5059769;28;20565;-39
2022/09/24 14:31:27;;;;;;;1.23;1.13;;;;;;;18.77;48.42;100401.69;5064462;28;20041;-40